Itagimirim, Brazil
Current Conditions -  °F | °C
As of 5:00 AM on Thursday 18 Dec 2014 (Local Time) from SBPS Reporting Station
Light Rain Light Rain  
Wind Chill: 73°   Ceiling: 1000
Heat Index: 73°   Visibility: 3mi
Dew Point: 72°   Wind: 3mph
Humidity: 94%   Direction: 280°W
Pressure: 29.88"   Gusts: NA
Location:  16.09°S, 39.61°W
Report Text: SBPS 180800Z 28003KT 5000 -RA BR OVC010 23/22 Q1012
Loading
Personal Weather Stations






























Interactive Weather Map New forecast layout! Learn more

10-Day Weather Forecast

Advertisements
Track Severe Weather on mobile